Time;durP1;ratioP1;P1;durP2;ratioP2;P2;SDS_P1;SDS_P2;PMS_P1;PMS_P2;Temp;Humidity;BMP_temperature;BMP_pressure;BME280_temperature;BME280_humidity;BME280_pressure;Samples;Min_cycle;Max_cycle;Signal;HPM_P1;HPM_P2
2021/10/02 00:41:17;;;;;;;13.40;10.30;;;;;;;11.04;70.66;99578.58;236568;1193;139055;-62
2021/10/02 00:46:22;;;;;;;14.30;10.60;;;;;;;11.00;70.40;99578.10;236659;1193;139076;-66
2021/10/02 00:51:26;;;;;;;12.60;10.80;;;;;;;11.02;70.93;99571.79;236322;1195;139971;-62
2021/10/02 00:56:32;;;;;;;12.60;10.40;;;;;;;11.07;70.94;99570.25;236384;1195;138736;-65
2021/10/02 01:01:54;;;;;;;14.80;10.80;;;;;;;11.01;70.88;99568.83;236168;1193;138162;-62
2021/10/02 01:07:22;;;;;;;13.60;9.80;;;;;;;10.93;70.64;99568.00;235748;1194;139596;-62
2021/10/02 01:13:10;;;;;;;10.30;8.50;;;;;;;10.86;70.58;99571.60;236274;1194;139399;-63
2021/10/02 01:18:28;;;;;;;15.30;9.60;;;;;;;10.82;70.64;99568.94;235274;1196;138548;-62
2021/10/02 01:23:56;;;;;;;29.70;9.40;;;;;;;10.78;70.76;99562.25;236043;1195;138002;-62
2021/10/02 01:29:07;;;;;;;16.80;9.50;;;;;;;10.70;70.68;99557.06;236193;1195;138420;-62
2021/10/02 01:34:24;;;;;;;13.30;9.80;;;;;;;10.63;70.73;99557.05;236526;1194;138517;-60
2021/10/02 01:50:34;;;;;;;8.90;8.00;;;;;;;10.51;70.55;99551.69;235867;1195;138880;-63
2021/10/02 01:55:38;;;;;;;13.90;7.60;;;;;;;10.47;70.58;99546.89;236219;1193;138210;-61
2021/10/02 02:00:44;;;;;;;11.60;7.50;;;;;;;10.43;70.68;99551.92;236562;1193;139368;-62
2021/10/02 02:05:49;;;;;;;9.70;7.70;;;;;;;10.37;70.70;99550.61;236542;1194;138655;-60
2021/10/02 02:10:54;;;;;;;8.60;7.30;;;;;;;10.29;70.62;99549.44;235207;1195;139431;-62
2021/10/02 02:15:59;;;;;;;11.70;7.70;;;;;;;10.22;70.38;99539.85;236268;1195;138517;-62
2021/10/02 02:21:07;;;;;;;8.50;6.90;;;;;;;10.18;70.64;99532.62;235728;1195;139232;-59
2021/10/02 02:26:13;;;;;;;11.90;7.20;;;;;;;10.21;70.46;99533.36;235632;1194;138737;-60
2021/10/02 02:31:16;;;;;;;11.30;7.70;;;;;;;10.16;70.54;99530.59;236531;1195;138444;-62
2021/10/02 02:36:21;;;;;;;8.60;7.30;;;;;;;10.12;70.72;99524.42;236422;1193;138777;-62
2021/10/02 02:41:25;;;;;;;10.20;8.00;;;;;;;10.10;70.68;99517.98;235749;1195;138038;-61
2021/10/02 02:46:32;;;;;;;10.80;7.60;;;;;;;10.07;70.78;99514.59;235738;1195;138633;-62
2021/10/02 02:52:10;;;;;;;10.40;8.00;;;;;;;9.98;70.65;99511.67;236385;1194;139481;-59
2021/10/02 02:57:17;;;;;;;13.20;7.90;;;;;;;9.94;70.60;99508.35;235048;1194;139396;-63
2021/10/02 03:02:22;;;;;;;8.70;7.10;;;;;;;9.95;70.75;99512.55;236322;1193;138509;-63
2021/10/02 03:07:26;;;;;;;9.40;7.80;;;;;;;9.95;70.76;99510.61;235726;1195;138908;-64
2021/10/02 03:12:40;;;;;;;10.40;7.60;;;;;;;9.93;70.68;99514.27;236397;1193;138301;-62
2021/10/02 03:17:46;;;;;;;10.60;7.80;;;;;;;9.90;70.94;99507.66;235978;1194;137956;-63
2021/10/02 03:22:53;;;;;;;14.70;6.60;;;;;;;9.87;70.85;99506.55;235976;1195;138256;-62
2021/10/02 03:27:59;;;;;;;8.50;6.80;;;;;;;9.80;70.82;99507.10;236373;1193;139732;-63
2021/10/02 03:33:03;;;;;;;8.80;6.70;;;;;;;9.76;70.57;99506.45;236453;1193;140947;-64
2021/10/02 03:38:07;;;;;;;12.40;7.20;;;;;;;9.77;70.66;99503.73;235933;1195;138915;-63
2021/10/02 03:43:13;;;;;;;11.00;7.20;;;;;;;9.75;70.56;99500.12;236408;1194;138220;-61
2021/10/02 03:48:16;;;;;;;8.60;7.00;;;;;;;9.70;70.81;99497.52;235733;1196;138857;-62
2021/10/02 03:53:19;;;;;;;10.20;7.10;;;;;;;9.66;70.77;99500.36;235840;1195;137909;-61
2021/10/02 03:58:22;;;;;;;53.70;36.30;;;;;;;9.79;72.09;99495.81;236243;1195;138362;-65
2021/10/02 04:03:25;;;;;;;9.50;6.80;;;;;;;10.54;72.67;99492.78;236148;1193;139746;-63
2021/10/02 04:08:29;;;;;;;11.10;7.50;;;;;;;10.55;70.89;99492.21;236263;1193;139039;-62
2021/10/02 04:13:32;;;;;;;9.10;6.90;;;;;;;10.43;70.27;99496.92;236526;1194;138304;-62
2021/10/02 04:18:35;;;;;;;8.00;6.80;;;;;;;10.26;70.05;99499.41;236025;1195;139245;-62
2021/10/02 04:23:39;;;;;;;197.40;148.50;;;;;;;10.08;69.99;99497.68;235876;1195;139037;-62
2021/10/02 04:28:42;;;;;;;23.30;16.90;;;;;;;9.98;70.09;99493.80;236218;1193;139652;-61
2021/10/02 04:33:46;;;;;;;8.00;6.20;;;;;;;9.88;70.27;99494.09;236445;1194;138168;-63
2021/10/02 04:38:49;;;;;;;7.50;6.20;;;;;;;9.79;70.20;99493.15;236173;1194;138790;-61
2021/10/02 04:43:52;;;;;;;7.40;6.30;;;;;;;9.72;70.21;99493.87;235787;1196;138262;-62
2021/10/02 04:48:55;;;;;;;8.70;6.40;;;;;;;9.67;70.18;99495.34;235476;1195;139001;-61
2021/10/02 04:53:58;;;;;;;8.20;6.30;;;;;;;9.67;70.61;99499.95;235977;1194;138047;-64
2021/10/02 04:59:02;;;;;;;8.50;5.90;;;;;;;9.61;70.31;99499.58;236243;1195;138756;-62
2021/10/02 05:04:06;;;;;;;8.20;6.00;;;;;;;9.52;70.22;99495.80;236661;1193;137984;-60
2021/10/02 05:09:10;;;;;;;8.40;5.10;;;;;;;9.43;70.23;99498.02;236008;1195;138226;-60
2021/10/02 05:14:12;;;;;;;6.70;5.40;;;;;;;9.40;70.25;99499.74;236054;1195;139093;-61
2021/10/02 05:19:16;;;;;;;7.80;6.20;;;;;;;9.44;70.65;99496.73;235990;1195;139007;-61
2021/10/02 05:24:20;;;;;;;7.60;5.60;;;;;;;9.47;70.69;99497.97;236001;1195;137935;-58
2021/10/02 05:29:25;;;;;;;10.40;5.50;;;;;;;9.47;70.41;99505.23;236075;1194;138752;-60
2021/10/02 05:34:28;;;;;;;8.60;5.60;;;;;;;9.43;70.55;99503.84;236535;1194;138158;-60
2021/10/02 05:39:32;;;;;;;6.50;5.50;;;;;;;9.41;70.90;99502.35;236234;1194;138518;-61
2021/10/02 05:44:35;;;;;;;7.10;6.00;;;;;;;9.44;70.98;99504.00;235629;1195;138565;-60
2021/10/02 05:49:38;;;;;;;6.50;5.30;;;;;;;9.50;70.89;99504.73;235989;1195;138651;-65
2021/10/02 05:54:41;;;;;;;6.70;5.30;;;;;;;9.57;70.85;99505.99;236473;1194;138861;-59
2021/10/02 05:59:46;;;;;;;6.40;5.50;;;;;;;9.61;71.10;99505.41;236137;1194;138133;-60
2021/10/02 06:04:49;;;;;;;8.30;5.70;;;;;;;9.67;71.17;99505.27;235901;1195;138282;-59
2021/10/02 06:09:52;;;;;;;7.40;5.50;;;;;;;9.73;71.25;99510.48;236288;1195;138623;-65
2021/10/02 06:14:55;;;;;;;8.00;5.70;;;;;;;9.81;71.41;99505.86;236244;1195;138867;-60
2021/10/02 06:19:58;;;;;;;8.60;5.40;;;;;;;9.89;71.71;99505.80;236244;1195;138175;-62
2021/10/02 06:25:01;;;;;;;7.10;5.50;;;;;;;9.99;71.68;99511.65;235407;1195;139623;-65
2021/10/02 06:30:07;;;;;;;9.80;5.30;;;;;;;10.12;71.90;99512.93;236033;1195;138570;-61
2021/10/02 06:35:10;;;;;;;;;;;;;;;10.24;71.87;99514.40;236482;1194;138730;-60
2021/10/02 06:40:14;;;;;;;7.60;5.60;;;;;;;10.33;71.88;99510.42;236462;1195;124639;-63
2021/10/02 06:45:17;;;;;;;11.40;6.20;;;;;;;10.45;72.04;99511.17;236125;1195;138308;-61
2021/10/02 06:50:20;;;;;;;7.90;5.50;;;;;;;10.55;72.37;99506.70;236260;1194;138770;-61
2021/10/02 06:55:24;;;;;;;7.80;5.30;;;;;;;10.71;72.09;99505.36;236428;1194;139033;-64
2021/10/02 07:00:27;;;;;;;11.20;6.80;;;;;;;10.90;72.29;99498.40;235693;1195;138543;-63
2021/10/02 07:05:30;;;;;;;12.50;7.10;;;;;;;11.08;72.51;99497.55;235751;1196;138926;-63
2021/10/02 07:10:33;;;;;;;14.50;8.30;;;;;;;11.27;72.53;99494.88;235881;1193;138839;-64
2021/10/02 07:15:37;;;;;;;15.10;8.80;;;;;;;11.45;72.66;99496.51;236493;1195;138991;-63
2021/10/02 07:20:40;;;;;;;14.80;8.70;;;;;;;11.60;72.72;99498.63;236379;1194;138672;-62
2021/10/02 07:25:43;;;;;;;18.00;8.40;;;;;;;11.75;72.09;99496.71;236581;1194;139435;-61
2021/10/02 07:30:46;;;;;;;21.50;9.10;;;;;;;11.93;72.29;99497.26;236497;1193;138769;-61
2021/10/02 07:35:49;;;;;;;18.60;9.60;;;;;;;12.12;72.35;99499.65;235785;1193;138655;-59
2021/10/02 07:40:55;;;;;;;23.80;11.00;;;;;;;12.29;72.34;99498.65;236501;1194;138889;-60
2021/10/02 07:46:00;;;;;;;21.10;11.10;;;;;;;12.43;72.15;99502.19;236330;1195;138736;-62
2021/10/02 07:51:03;;;;;;;20.10;10.80;;;;;;;12.57;72.01;99504.00;236117;1193;138529;-62
2021/10/02 07:56:08;;;;;;;20.70;12.20;;;;;;;12.74;72.10;99498.98;236492;1194;139212;-60
2021/10/02 08:01:12;;;;;;;21.90;13.60;;;;;;;12.96;72.01;99495.64;236364;1194;138585;-61
2021/10/02 08:06:16;;;;;;;21.20;12.10;;;;;;;13.16;71.98;99487.58;236379;1195;139896;-62
2021/10/02 08:11:19;;;;;;;23.30;11.40;;;;;;;13.33;71.79;99484.90;235924;1194;138377;-63
2021/10/02 08:16:28;;;;;;;14.80;8.80;;;;;;;13.46;71.72;99483.45;236536;1195;138940;-62
2021/10/02 08:21:31;;;;;;;14.80;7.80;;;;;;;13.59;71.61;99484.77;236544;1194;138887;-62
2021/10/02 08:26:35;;;;;;;17.00;8.70;;;;;;;13.74;71.55;99476.95;236472;1193;139111;-62
2021/10/02 08:31:38;;;;;;;12.30;7.80;;;;;;;13.94;71.65;99477.90;236321;1194;139011;-62
2021/10/02 08:36:59;;;;;;;11.80;8.10;;;;;;;14.17;71.49;99479.73;236150;1195;141869;-63
2021/10/02 08:42:03;;;;;;;13.40;8.20;;;;;;;14.35;71.23;99479.52;236298;1195;139478;-63
2021/10/02 08:47:06;;;;;;;12.30;8.40;;;;;;;14.47;71.01;99475.25;235756;1186;138245;-64
2021/10/02 08:52:10;;;;;;;1139.10;725.10;;;;;;;14.57;70.87;99474.56;236268;1195;139068;-62
2021/10/02 08:57:18;;;;;;;26.00;16.10;;;;;;;14.72;70.95;99477.96;236209;1195;139519;-64
2021/10/02 09:02:23;;;;;;;15.20;10.00;;;;;;;14.93;70.80;99476.12;236339;1195;139179;-61
2021/10/02 09:07:27;;;;;;;15.90;9.80;;;;;;;15.12;70.81;99462.91;236270;1195;209328;-63
2021/10/02 09:12:31;;;;;;;15.30;10.70;;;;;;;15.77;72.88;99462.27;236439;1194;138571;-65
2021/10/02 09:17:35;;;;;;;19.00;10.50;;;;;;;16.82;73.07;99456.48;235999;1193;139695;-62
2021/10/02 09:23:03;;;;;;;12.10;8.60;;;;;;;17.67;72.06;99453.42;236048;1195;139163;-65
2021/10/02 09:28:14;;;;;;;144.20;98.50;;;;;;;18.15;70.03;99445.05;235915;1195;138813;-62
2021/10/02 09:33:23;;;;;;;17.40;12.10;;;;;;;18.04;68.17;99440.60;236076;1195;138856;-62
2021/10/02 09:38:30;;;;;;;13.50;10.10;;;;;;;17.84;67.37;99432.68;236125;1195;139159;-62
2021/10/02 09:43:33;;;;;;;12.90;9.60;;;;;;;17.66;67.08;99429.80;235963;1195;139715;-62
2021/10/02 09:48:37;;;;;;;16.50;10.20;;;;;;;17.60;67.09;99427.55;236222;1195;138916;-63
2021/10/02 09:53:43;;;;;;;13.30;9.70;;;;;;;17.52;66.83;99427.27;236185;1195;138746;-63
2021/10/02 09:58:49;;;;;;;11.70;9.80;;;;;;;17.48;66.89;99427.98;236196;1195;139146;-63
2021/10/02 10:03:54;;;;;;;14.60;11.00;;;;;;;17.51;66.81;99423.57;236243;1195;139171;-62
2021/10/02 10:09:07;;;;;;;13.10;10.60;;;;;;;17.55;66.47;99419.32;236329;1195;138451;-62
2021/10/02 10:14:22;;;;;;;14.90;10.40;;;;;;;17.58;66.14;99420.87;236421;1194;138501;-62
2021/10/02 10:19:28;;;;;;;11.40;9.60;;;;;;;17.64;66.04;99411.20;236543;1195;138996;-62
2021/10/02 10:24:32;;;;;;;11.90;9.30;;;;;;;17.74;65.92;99405.81;236424;1194;138664;-64
2021/10/02 10:29:42;;;;;;;15.30;9.60;;;;;;;17.92;65.75;99406.11;236346;1194;139694;-64
2021/10/02 10:34:46;;;;;;;15.40;10.50;;;;;;;18.07;65.56;99402.86;236506;1195;138883;-64
2021/10/02 10:39:57;;;;;;;13.20;10.50;;;;;;;18.23;65.49;99401.61;236707;1194;138632;-62
2021/10/02 10:45:01;;;;;;;14.90;10.30;;;;;;;18.32;64.91;99397.44;236539;1194;138572;-63
2021/10/02 10:50:04;;;;;;;16.20;10.90;;;;;;;18.42;64.57;99397.99;236127;1195;138816;-63
2021/10/02 10:55:20;;;;;;;15.50;11.10;;;;;;;18.48;64.41;99393.98;236239;1194;138676;-62
2021/10/02 11:00:31;;;;;;;16.30;11.40;;;;;;;18.54;63.89;99384.14;235984;1195;138877;-64
2021/10/02 11:05:35;;;;;;;16.10;10.80;;;;;;;18.56;63.50;99377.13;236218;1194;139169;-62
2021/10/02 11:10:41;;;;;;;15.80;10.80;;;;;;;18.59;63.48;99369.52;236450;1195;138756;-60
2021/10/02 11:15:45;;;;;;;16.10;11.30;;;;;;;18.62;63.30;99363.30;236332;1193;138654;-62
2021/10/02 11:21:00;;;;;;;13.40;10.60;;;;;;;18.66;62.96;99360.41;236496;1194;140055;-62
2021/10/02 11:26:23;;;;;;;15.20;10.30;;;;;;;18.71;62.76;99354.09;236323;1194;139190;-62
2021/10/02 11:31:27;;;;;;;15.50;10.60;;;;;;;18.79;62.64;99352.64;236006;1195;139498;-63
2021/10/02 11:36:30;;;;;;;12.10;9.70;;;;;;;18.90;62.39;99343.52;236362;1195;138604;-62
2021/10/02 11:41:39;;;;;;;14.10;10.60;;;;;;;19.06;62.19;99337.56;236374;1194;138853;-64
2021/10/02 11:46:43;;;;;;;11.90;9.00;;;;;;;19.27;61.70;99331.80;236461;1195;138929;-62
2021/10/02 11:52:09;;;;;;;10.70;9.60;;;;;;;19.40;60.81;99332.76;236240;1189;138896;-62
2021/10/02 11:57:14;;;;;;;11.60;9.50;;;;;;;19.49;60.53;99329.95;236276;1194;138686;-62
2021/10/02 12:02:17;;;;;;;15.40;9.50;;;;;;;19.58;60.35;99324.39;236217;1195;138388;-62
2021/10/02 12:07:20;;;;;;;12.50;9.20;;;;;;;19.60;59.66;99319.27;236099;1195;139292;-62
2021/10/02 12:12:24;;;;;;;12.50;8.70;;;;;;;19.63;59.50;99322.48;236473;1195;138997;-64
2021/10/02 12:17:27;;;;;;;11.60;9.00;;;;;;;19.65;59.21;99325.55;236376;1194;138216;-64
2021/10/02 12:22:31;;;;;;;14.70;8.90;;;;;;;19.62;58.80;99322.23;236082;1195;139764;-62
2021/10/02 12:27:36;;;;;;;11.10;8.20;;;;;;;19.59;58.43;99316.86;236578;1194;138530;-63
2021/10/02 12:32:39;;;;;;;10.50;9.40;;;;;;;19.61;58.25;99311.14;236067;1193;138537;-62
2021/10/02 12:37:42;;;;;;;11.70;9.00;;;;;;;19.62;58.04;99300.44;236449;1193;138897;-62
2021/10/02 12:42:59;;;;;;;13.80;8.70;;;;;;;19.62;57.91;99311.73;236052;1195;139627;-63
2021/10/02 12:48:05;;;;;;;9.70;8.30;;;;;;;19.66;57.42;99310.37;236218;1195;138775;-62
2021/10/02 12:53:08;;;;;;;10.60;7.70;;;;;;;19.70;57.19;99302.70;235991;1195;139207;-63
2021/10/02 12:58:20;;;;;;;11.80;8.50;;;;;;;19.71;56.68;99300.83;236350;1187;138335;-62
2021/10/02 13:03:23;;;;;;;12.50;8.40;;;;;;;19.72;56.62;99298.40;236240;1195;139529;-62
2021/10/02 13:08:26;;;;;;;10.10;8.50;;;;;;;19.95;57.01;99294.90;236305;1194;138933;-61
2021/10/02 13:13:29;;;;;;;11.90;7.70;;;;;;;20.15;56.86;99284.38;236262;1195;138597;-62
2021/10/02 13:18:32;;;;;;;13.90;8.00;;;;;;;20.45;56.41;99280.70;236263;1195;138605;-63
2021/10/02 13:23:39;;;;;;;12.20;8.30;;;;;;;20.58;56.02;99279.63;236604;1187;138645;-63
2021/10/02 13:28:46;;;;;;;10.30;8.20;;;;;;;20.64;55.59;99276.96;236624;1195;138552;-64
2021/10/02 13:33:53;;;;;;;11.00;8.80;;;;;;;20.54;55.26;99277.69;236343;1194;138349;-64
2021/10/02 13:39:12;;;;;;;15.90;9.20;;;;;;;20.46;55.08;99279.88;236279;1195;138646;-62
2021/10/02 13:44:31;;;;;;;10.40;8.50;;;;;;;20.36;55.22;99275.77;236058;1195;138766;-62
2021/10/02 13:49:34;;;;;;;12.30;8.60;;;;;;;20.28;55.07;99274.48;236482;1195;138815;-63
2021/10/02 13:54:37;;;;;;;12.00;8.80;;;;;;;20.22;55.20;99274.16;236580;1193;139106;-62
2021/10/02 13:59:40;;;;;;;13.40;9.20;;;;;;;20.17;55.07;99272.65;236529;1195;138937;-63
2021/10/02 14:04:43;;;;;;;101.50;63.60;;;;;;;20.13;55.37;99273.58;236216;1194;138255;-64
2021/10/02 14:09:46;;;;;;;27.20;19.80;;;;;;;20.16;56.39;99270.23;236336;1195;138807;-61
2021/10/02 14:14:49;;;;;;;15.70;10.20;;;;;;;20.21;56.61;99271.69;236252;1194;138679;-65
2021/10/02 14:19:52;;;;;;;15.40;9.90;;;;;;;20.26;56.51;99269.95;236261;1195;138382;-65
2021/10/02 14:24:55;;;;;;;14.60;11.00;;;;;;;20.28;56.46;99273.47;236469;1195;138052;-61
2021/10/02 14:29:59;;;;;;;11.10;9.10;;;;;;;20.33;56.37;99273.39;236431;1195;139957;-62
2021/10/02 14:35:08;;;;;;;11.10;8.40;;;;;;;20.38;55.91;99273.48;235839;1195;138954;-64
2021/10/02 14:40:12;;;;;;;9.50;7.10;;;;;;;20.33;55.04;99273.36;236518;1195;138062;-67
2021/10/02 14:45:15;;;;;;;13.60;7.90;;;;;;;20.26;54.49;99275.10;236097;1195;138636;-61
2021/10/02 14:50:19;;;;;;;11.70;7.40;;;;;;;20.20;54.17;99276.08;235970;1195;138321;-60
2021/10/02 14:55:22;;;;;;;9.70;6.70;;;;;;;20.14;54.02;99275.24;235335;1195;139225;-60
2021/10/02 15:00:25;;;;;;;9.50;7.90;;;;;;;20.10;54.01;99275.13;236221;1194;139514;-66
2021/10/02 15:05:31;;;;;;;12.50;7.10;;;;;;;20.04;53.80;99268.85;236020;1194;139874;-61
2021/10/02 15:10:34;;;;;;;12.10;7.90;;;;;;;19.98;53.62;99266.21;236159;1195;138862;-59
2021/10/02 15:15:37;;;;;;;14.90;9.80;;;;;;;19.94;53.81;99266.77;235693;1190;138664;-61
2021/10/02 15:20:48;;;;;;;163.70;108.30;;;;;;;19.96;54.14;99269.23;236479;1194;138534;-61
2021/10/02 15:25:56;;;;;;;24.90;17.50;;;;;;;19.96;53.97;99272.02;236267;1195;139511;-61
2021/10/02 15:31:01;;;;;;;13.10;9.20;;;;;;;19.94;54.20;99277.54;236037;1194;138554;-61
2021/10/02 15:36:04;;;;;;;14.70;10.40;;;;;;;19.88;54.41;99280.66;236425;1194;138191;-61
2021/10/02 15:41:08;;;;;;;11.60;8.50;;;;;;;19.87;54.83;99272.34;236195;1194;139019;-61
2021/10/02 15:46:12;;;;;;;11.30;8.20;;;;;;;19.76;55.04;99274.27;236174;1189;138509;-61
2021/10/02 15:51:23;;;;;;;15.70;9.10;;;;;;;19.63;55.19;99273.52;236084;1195;138493;-62
2021/10/02 15:56:27;;;;;;;11.40;8.10;;;;;;;19.47;55.46;99279.55;235479;1195;139281;-61
2021/10/02 16:01:31;;;;;;;21.10;9.60;;;;;;;19.32;55.55;99289.60;236171;1193;139315;-61
2021/10/02 16:06:42;;;;;;;18.40;9.90;;;;;;;19.14;55.91;99297.55;236064;1195;138698;-62
2021/10/02 16:11:48;;;;;;;18.10;9.80;;;;;;;19.07;56.64;99298.10;235825;1195;138345;-63
2021/10/02 16:16:52;;;;;;;27.50;10.40;;;;;;;19.15;57.17;99294.98;236479;1194;138544;-63
2021/10/02 16:21:57;;;;;;;169.60;128.00;;;;;;;19.07;56.96;99298.76;236127;1195;139015;-60
2021/10/02 16:27:00;;;;;;;33.20;25.20;;;;;;;19.09;57.42;99298.04;235679;1194;139251;-58
2021/10/02 16:32:03;;;;;;;34.20;20.20;;;;;;;19.10;57.67;99294.66;236277;1195;139120;-59
2021/10/02 16:37:07;;;;;;;26.60;16.30;;;;;;;19.13;57.90;99298.04;236372;1194;140041;-61
2021/10/02 16:42:26;;;;;;;25.90;14.60;;;;;;;19.13;58.11;99301.29;236225;1193;140783;-63
2021/10/02 16:47:29;;;;;;;25.10;12.60;;;;;;;19.15;58.44;99303.41;235945;1193;138212;-64
2021/10/02 16:52:33;;;;;;;28.20;13.10;;;;;;;19.15;58.58;99298.95;236500;1195;137942;-63
2021/10/02 16:57:40;;;;;;;23.30;11.10;;;;;;;19.09;58.45;99305.80;236230;1195;138441;-59
2021/10/02 17:02:43;;;;;;;21.80;11.80;;;;;;;18.92;58.30;99309.15;235947;1195;138690;-60
2021/10/02 17:07:46;;;;;;;20.20;11.50;;;;;;;18.81;58.65;99305.65;235561;1195;139501;-60
2021/10/02 17:12:51;;;;;;;19.60;11.40;;;;;;;18.84;59.02;99299.45;236124;1195;138840;-60
2021/10/02 17:17:55;;;;;;;21.90;11.40;;;;;;;18.81;58.91;99301.55;236581;1194;138546;-61
2021/10/02 17:22:58;;;;;;;148.70;104.10;;;;;;;18.67;58.58;99308.75;236495;1195;139032;-61
2021/10/02 17:28:03;;;;;;;21.00;12.90;;;;;;;18.37;58.03;99305.04;236462;1195;138873;-65
2021/10/02 17:33:06;;;;;;;22.60;11.40;;;;;;;17.97;57.74;99305.70;235682;1195;138795;-64
2021/10/02 17:38:09;;;;;;;16.90;8.80;;;;;;;17.56;57.93;99310.85;235873;1195;138975;-62
2021/10/02 17:43:13;;;;;;;13.00;8.80;;;;;;;17.35;57.89;99306.94;235679;1195;138631;-64
2021/10/02 17:48:16;;;;;;;22.90;10.60;;;;;;;17.24;58.02;99308.59;236054;1195;139774;-64
2021/10/02 17:53:19;;;;;;;17.30;10.90;;;;;;;17.09;58.41;99304.98;236451;1194;138580;-63
2021/10/02 17:58:23;;;;;;;16.30;10.00;;;;;;;16.88;58.35;99313.08;236778;1194;138360;-63
2021/10/02 18:03:29;;;;;;;13.60;8.50;;;;;;;16.78;58.39;99319.23;235771;1195;138605;-62
2021/10/02 18:08:36;;;;;;;17.50;9.60;;;;;;;16.77;58.37;99319.52;235590;1195;138571;-63
2021/10/02 18:13:41;;;;;;;15.20;9.80;;;;;;;16.73;58.38;99329.14;235626;1196;139074;-63
2021/10/02 18:18:48;;;;;;;17.30;10.60;;;;;;;16.67;58.85;99330.33;234639;1195;139881;-64
2021/10/02 18:23:54;;;;;;;26.80;14.70;;;;;;;16.48;58.78;99333.91;236480;1195;138703;-59
2021/10/02 18:28:58;;;;;;;30.60;16.40;;;;;;;16.22;59.27;99331.54;235656;1196;139124;-61
2021/10/02 18:34:02;;;;;;;26.10;15.80;;;;;;;16.01;59.53;99330.59;235907;1194;161245;-66
2021/10/02 18:39:06;;;;;;;32.30;18.50;;;;;;;15.85;60.22;99333.22;235541;1195;139869;-65
2021/10/02 18:44:10;;;;;;;29.50;19.30;;;;;;;15.74;60.52;99338.20;235923;1194;139195;-62
2021/10/02 18:49:15;;;;;;;29.70;19.10;;;;;;;15.64;60.79;99344.55;235122;1194;139272;-62
2021/10/02 18:54:21;;;;;;;38.00;21.40;;;;;;;15.49;61.00;99339.79;235927;1195;141712;-62
2021/10/02 18:59:25;;;;;;;38.80;23.10;;;;;;;15.33;61.43;99342.05;235414;1196;141183;-66
2021/10/02 19:04:28;;;;;;;39.50;23.40;;;;;;;15.22;61.71;99339.20;235758;1195;139206;-63
2021/10/02 19:09:32;;;;;;;34.00;22.90;;;;;;;15.08;62.00;99341.45;236556;1193;138445;-62
2021/10/02 19:14:36;;;;;;;40.60;22.60;;;;;;;14.95;62.18;99343.72;235955;1193;138399;-66
2021/10/02 19:19:39;;;;;;;40.20;22.90;;;;;;;14.86;62.36;99350.13;236236;1194;140276;-61
2021/10/02 19:24:43;;;;;;;43.90;24.20;;;;;;;14.76;62.54;99339.45;236198;1193;139229;-64
2021/10/02 19:29:46;;;;;;;44.70;26.60;;;;;;;14.67;62.93;99342.95;235740;1195;139117;-65
2021/10/02 19:34:49;;;;;;;41.30;26.90;;;;;;;14.63;63.10;99352.17;236468;1195;138633;-64
2021/10/02 19:39:54;;;;;;;46.30;26.90;;;;;;;14.57;63.25;99354.23;236410;1194;138594;-67
2021/10/02 19:44:57;;;;;;;45.70;29.50;;;;;;;14.51;63.35;99348.08;236228;1195;138988;-67
2021/10/02 19:50:00;;;;;;;48.20;29.20;;;;;;;14.44;63.41;99354.95;236196;1194;139100;-63
2021/10/02 19:55:04;;;;;;;45.60;28.30;;;;;;;14.34;63.52;99354.27;236071;1194;138843;-66
2021/10/02 20:00:11;;;;;;;48.30;27.90;;;;;;;14.24;63.70;99358.16;235994;1195;140074;-62
2021/10/02 20:05:15;;;;;;;49.00;29.30;;;;;;;14.21;64.06;99355.36;236293;1193;139446;-62
2021/10/02 20:10:18;;;;;;;50.70;29.40;;;;;;;14.22;64.18;99347.08;236285;1195;139133;-65
2021/10/02 20:15:22;;;;;;;51.00;30.50;;;;;;;14.17;64.11;99346.23;236034;1195;139503;-61
2021/10/02 20:20:25;;;;;;;49.30;30.20;;;;;;;14.10;64.23;99345.99;236239;1194;138816;-64
2021/10/02 20:25:35;;;;;;;52.40;32.30;;;;;;;14.04;64.45;99352.89;235782;1195;138815;-65
2021/10/02 20:30:39;;;;;;;44.20;30.50;;;;;;;13.94;64.45;99352.30;235903;1195;138730;-64
2021/10/02 20:35:45;;;;;;;50.60;27.50;;;;;;;13.83;64.51;99337.94;235993;1195;138851;-62
2021/10/02 20:40:48;;;;;;;45.40;28.10;;;;;;;13.76;64.77;99337.71;236306;1195;140577;-62
2021/10/02 20:45:51;;;;;;;44.30;27.70;;;;;;;13.75;65.01;99339.75;236081;1195;141119;-62
2021/10/02 20:50:55;;;;;;;42.30;26.80;;;;;;;13.76;65.09;99341.09;236383;1194;138342;-65
2021/10/02 20:56:02;;;;;;;45.10;27.90;;;;;;;13.77;65.15;99339.47;236099;1195;139069;-62
2021/10/02 21:01:08;;;;;;;42.50;27.00;;;;;;;13.70;65.14;99329.90;236431;1194;138471;-68
2021/10/02 21:06:13;;;;;;;46.40;27.00;;;;;;;13.65;65.15;99329.75;236262;1195;139299;-62
2021/10/02 21:11:17;;;;;;;40.30;24.50;;;;;;;13.57;65.21;99335.28;235809;1195;138344;-64
2021/10/02 21:16:23;;;;;;;36.70;24.20;;;;;;;13.55;65.50;99333.65;236001;1195;139258;-70
2021/10/02 21:21:27;;;;;;;45.10;27.40;;;;;;;13.53;65.42;99328.48;236236;1195;139371;-67
2021/10/02 21:26:35;;;;;;;45.20;27.50;;;;;;;13.42;65.35;99331.50;236392;1193;138542;-66
2021/10/02 21:31:41;;;;;;;50.90;29.80;;;;;;;13.36;65.49;99334.82;235911;1195;139431;-62
2021/10/02 21:36:44;;;;;;;44.00;29.50;;;;;;;13.29;65.54;99334.02;236532;1194;139615;-65
2021/10/02 21:41:47;;;;;;;49.70;30.60;;;;;;;13.21;65.61;99334.32;235550;1195;138786;-63
2021/10/02 21:46:56;;;;;;;44.90;28.50;;;;;;;13.13;65.60;99335.61;236459;1195;139372;-62
2021/10/02 21:52:01;;;;;;;52.90;30.60;;;;;;;13.09;65.71;99330.73;236333;1194;140489;-61
2021/10/02 21:57:04;;;;;;;56.00;33.80;;;;;;;13.09;66.05;99320.59;235967;1195;139147;-63
2021/10/02 22:02:10;;;;;;;55.10;35.30;;;;;;;13.01;65.80;99318.27;236149;1195;139046;-64
2021/10/02 22:07:34;;;;;;;54.60;34.50;;;;;;;12.94;65.88;99314.84;235501;1193;138489;-64
2021/10/02 22:12:41;;;;;;;59.70;35.30;;;;;;;12.83;65.56;99309.33;235443;1195;140061;-63
2021/10/02 22:17:46;;;;;;;54.30;33.20;;;;;;;12.69;65.40;99302.08;235557;1195;139982;-64
2021/10/02 22:22:52;;;;;;;51.60;34.10;;;;;;;12.59;65.77;99291.71;235924;1195;138831;-63
2021/10/02 22:28:17;;;;;;;53.10;32.00;;;;;;;12.47;65.70;99289.61;235182;1195;139132;-63
2021/10/02 22:33:20;;;;;;;50.70;30.90;;;;;;;12.40;66.04;99286.02;235612;1195;141143;-64
2021/10/02 22:38:23;;;;;;;49.50;31.70;;;;;;;12.38;65.95;99283.12;236287;1195;139138;-63
2021/10/02 22:43:27;;;;;;;52.80;31.70;;;;;;;12.38;66.27;99280.64;236024;1195;138762;-63
2021/10/02 22:48:35;;;;;;;51.70;32.20;;;;;;;12.34;66.26;99276.25;235940;1195;139105;-62
2021/10/02 22:53:41;;;;;;;51.50;32.70;;;;;;;12.30;66.32;99276.34;236462;1194;139441;-62
2021/10/02 22:58:47;;;;;;;49.30;31.40;;;;;;;12.25;66.24;99277.37;236077;1193;139945;-63
2021/10/02 23:03:52;;;;;;;44.50;29.90;;;;;;;12.20;66.33;99280.41;235838;1193;140043;-66
2021/10/02 23:08:55;;;;;;;47.90;31.00;;;;;;;12.14;66.49;99281.09;236132;1188;140374;-64
2021/10/02 23:13:58;;;;;;;45.80;30.50;;;;;;;12.15;66.56;99282.85;236292;1195;138987;-67
2021/10/02 23:19:14;;;;;;;50.50;31.60;;;;;;;12.17;66.62;99288.40;236353;1194;138552;-64
2021/10/02 23:24:21;;;;;;;51.80;32.90;;;;;;;12.12;66.41;99289.61;236350;1195;140601;-64
2021/10/02 23:29:25;;;;;;;52.20;32.30;;;;;;;12.08;66.48;99282.93;236260;1195;138675;-65
2021/10/02 23:34:28;;;;;;;53.20;33.00;;;;;;;12.01;66.67;99293.35;236152;1195;138319;-63
2021/10/02 23:39:34;;;;;;;50.30;31.70;;;;;;;11.91;66.25;99294.52;236251;1194;138868;-62
2021/10/02 23:44:42;;;;;;;42.90;28.00;;;;;;;11.81;66.35;99300.61;235576;1195;139089;-62
2021/10/02 23:49:46;;;;;;;47.00;29.00;;;;;;;11.73;66.58;99305.55;236447;1194;139636;-61
2021/10/02 23:54:58;;;;;;;51.90;28.50;;;;;;;11.72;66.67;99305.26;235676;1195;139178;-65
